createdAt,value
2023-04-16T00:01:45.787Z,100609.50
2023-04-16T00:04:15.817Z,100620.03
2023-04-16T00:06:54.598Z,100615.03
2023-04-16T00:09:26.122Z,100617.13
2023-04-16T00:11:54.649Z,100617.28
2023-04-16T00:14:24.514Z,100622.59
2023-04-16T00:16:54.491Z,100622.59
2023-04-16T00:19:24.991Z,100618.75
2023-04-16T00:21:53.834Z,100613.78
2023-04-16T00:24:22.304Z,100604.78
2023-04-16T00:26:50.572Z,100605.88
2023-04-16T00:29:18.684Z,100612.28
2023-04-16T00:31:49.594Z,100618.13
2023-04-16T00:34:17.748Z,100620.25
2023-04-16T00:36:46.118Z,100616.53
2023-04-16T00:39:14.386Z,100620.34
2023-04-16T00:41:44.375Z,100620.56
2023-04-16T00:44:12.678Z,100612.81
2023-04-16T00:46:41.804Z,100622.88
2023-04-16T00:49:11.470Z,100628.63
2023-04-16T00:51:40.005Z,100635.31
2023-04-16T00:54:11.197Z,100620.44
2023-04-16T00:56:41.102Z,100623.88
2023-04-16T00:59:10.187Z,100631.41
2023-04-16T01:01:39.161Z,100629.94
2023-04-16T01:04:08.278Z,100630.78
2023-04-16T01:06:38.164Z,100629.50
2023-04-16T01:09:06.626Z,100626.75
2023-04-16T01:11:35.301Z,100633.00
2023-04-16T01:14:03.578Z,100634.63
2023-04-16T01:16:34.095Z,100638.88
2023-04-16T01:19:02.867Z,100636.72
2023-04-16T01:21:32.531Z,100638.66
2023-04-16T01:24:06.280Z,100637.91
2023-04-16T01:26:34.665Z,100639.22
2023-04-16T01:29:04.517Z,100647.28
2023-04-16T01:31:34.932Z,100647.75
2023-04-16T01:34:11.239Z,100651.22
2023-04-16T01:36:42.193Z,100653.53
2023-04-16T01:39:11.667Z,100655.34
2023-04-16T01:41:41.005Z,100654.94
2023-04-16T01:44:09.149Z,100658.25
2023-04-16T01:46:39.116Z,100658.03
2023-04-16T01:49:07.749Z,100657.16
2023-04-16T01:51:36.242Z,100663.75
2023-04-16T01:54:06.168Z,100664.50
2023-04-16T01:56:35.078Z,100661.41
2023-04-16T01:59:03.793Z,100664.06
2023-04-16T02:01:38.274Z,100667.13
2023-04-16T02:04:08.615Z,100658.84
2023-04-16T02:06:36.974Z,100667.88
2023-04-16T02:09:06.787Z,100664.59
2023-04-16T02:11:36.197Z,100668.09
2023-04-16T02:14:04.789Z,100670.53
2023-04-16T02:16:33.661Z,100668.91
2023-04-16T02:19:12.271Z,100663.72
2023-04-16T02:21:42.782Z,100672.00
2023-04-16T02:24:12.939Z,100659.25
2023-04-16T02:26:42.246Z,100657.34
2023-04-16T02:29:16.529Z,100662.88
2023-04-16T02:31:53.251Z,100661.88
2023-04-16T02:34:22.590Z,100660.53
2023-04-16T02:36:50.902Z,100652.56
2023-04-16T02:39:21.840Z,100664.16
2023-04-16T02:41:50.434Z,100666.91
2023-04-16T02:44:18.851Z,100668.91
2023-04-16T02:46:47.609Z,100674.44
2023-04-16T02:49:15.830Z,100673.19
2023-04-16T02:51:43.906Z,100666.28
2023-04-16T02:54:12.170Z,100668.59
2023-04-16T02:56:42.230Z,100672.44
2023-04-16T02:59:11.104Z,100670.94
2023-04-16T03:01:39.555Z,100669.47
2023-04-16T03:04:10.130Z,100670.94
2023-04-16T03:06:40.875Z,100677.75
2023-04-16T03:09:12.756Z,100679.22
2023-04-16T03:11:42.592Z,100671.59
2023-04-16T03:14:12.059Z,100680.91
2023-04-16T03:16:40.590Z,100677.63
2023-04-16T03:19:09.173Z,100681.47
2023-04-16T03:21:38.525Z,100679.53
2023-04-16T03:24:07.015Z,100676.19
2023-04-16T03:26:35.717Z,100673.56
2023-04-16T03:29:08.296Z,100672.81
2023-04-16T03:31:36.980Z,100674.94
2023-04-16T03:34:05.558Z,100679.00
2023-04-16T03:36:35.522Z,100689.41
2023-04-16T03:39:04.023Z,100690.50
2023-04-16T03:41:32.569Z,100685.59
2023-04-16T03:44:01.367Z,100691.44
2023-04-16T03:46:31.283Z,100689.50
2023-04-16T03:48:59.913Z,100685.22
2023-04-16T03:51:29.444Z,100701.09
2023-04-16T03:53:59.179Z,100684.53
2023-04-16T03:56:29.365Z,100690.91
2023-04-16T03:59:15.024Z,100700.25
2023-04-16T04:01:48.024Z,100695.59
2023-04-16T04:04:21.062Z,100697.19
2023-04-16T04:06:51.381Z,100697.09
2023-04-16T04:09:19.528Z,100700.38
2023-04-16T04:11:48.462Z,100700.94
2023-04-16T04:14:16.927Z,100709.22
2023-04-16T04:16:47.951Z,100711.03
2023-04-16T04:19:16.646Z,100712.16
2023-04-16T04:21:45.513Z,100707.72
2023-04-16T04:24:16.098Z,100711.75
2023-04-16T04:26:46.157Z,100715.06
2023-04-16T04:29:15.936Z,100713.25
2023-04-16T04:31:44.265Z,100724.28
2023-04-16T04:34:14.100Z,100711.75
2023-04-16T04:36:42.122Z,100721.31
2023-04-16T04:39:13.326Z,100720.78
2023-04-16T04:41:44.465Z,100728.88
2023-04-16T04:44:12.879Z,100728.31
2023-04-16T04:46:41.690Z,100722.56
2023-04-16T04:49:10.566Z,100727.69
2023-04-16T04:51:40.766Z,100725.66
2023-04-16T04:54:08.866Z,100737.34
2023-04-16T04:56:40.336Z,100741.69
2023-04-16T04:59:12.607Z,100737.47
2023-04-16T05:01:41.978Z,100734.69
2023-04-16T05:04:10.379Z,100746.91
2023-04-16T05:06:39.987Z,100745.44
2023-04-16T05:09:11.491Z,100742.78
2023-04-16T05:11:40.587Z,100752.09
2023-04-16T05:14:09.086Z,100754.88
2023-04-16T05:16:38.122Z,100749.56
2023-04-16T05:19:06.528Z,100749.78
2023-04-16T05:21:36.013Z,100756.34
2023-04-16T05:24:06.123Z,100755.19
2023-04-16T05:26:34.515Z,100752.50
2023-04-16T05:29:02.909Z,100756.03
2023-04-16T05:31:31.521Z,100757.94
2023-04-16T05:33:59.963Z,100754.97
2023-04-16T05:36:28.998Z,100759.31
2023-04-16T05:38:58.372Z,100762.31
2023-04-16T05:41:28.821Z,100773.56
2023-04-16T05:43:57.402Z,100769.72
2023-04-16T05:46:26.003Z,100770.47
2023-04-16T05:48:55.950Z,100788.75
2023-04-16T05:51:26.314Z,100781.53
2023-04-16T05:53:54.661Z,100793.31
2023-04-16T05:56:23.473Z,100794.59
2023-04-16T05:58:55.483Z,100791.94
2023-04-16T06:01:23.721Z,100795.22
2023-04-16T06:03:52.755Z,100793.00
2023-04-16T06:06:21.184Z,100797.03
2023-04-16T06:08:49.537Z,100793.31
2023-04-16T06:11:27.669Z,100798.84
2023-04-16T06:13:56.485Z,100802.38
2023-04-16T06:16:24.693Z,100806.09
2023-04-16T06:18:53.211Z,100803.09
2023-04-16T06:21:21.882Z,100804.38
2023-04-16T06:23:50.278Z,100801.59
2023-04-16T06:26:18.888Z,100807.34
2023-04-16T06:28:53.840Z,100801.19
2023-04-16T06:31:22.437Z,100803.72
2023-04-16T06:33:56.607Z,100807.03
2023-04-16T06:36:24.671Z,100803.06
2023-04-16T06:38:52.913Z,100802.78
2023-04-16T06:41:22.673Z,100802.34
2023-04-16T06:43:53.762Z,100809.34
2023-04-16T06:46:22.673Z,100811.38
2023-04-16T06:48:51.207Z,100816.38
2023-04-16T06:51:19.791Z,100811.25
2023-04-16T06:53:48.705Z,100815.72
2023-04-16T06:56:17.217Z,100825.41
2023-04-16T06:58:45.765Z,100819.66
2023-04-16T07:01:18.300Z,100816.69
2023-04-16T07:03:47.799Z,100823.50
2023-04-16T07:06:16.613Z,100825.94
2023-04-16T07:08:46.619Z,100827.44
2023-04-16T07:11:14.970Z,100828.91
2023-04-16T07:13:43.147Z,100825.06
2023-04-16T07:16:11.464Z,100818.28
2023-04-16T07:18:41.947Z,100818.50
2023-04-16T07:21:10.253Z,100825.75
2023-04-16T07:23:38.732Z,100817.31
2023-04-16T07:26:07.568Z,100823.34
2023-04-16T07:28:35.749Z,100824.09
2023-04-16T07:31:04.632Z,100820.69
2023-04-16T07:33:33.072Z,100825.34
2023-04-16T07:36:02.833Z,100826.81
2023-04-16T07:38:31.050Z,100829.06
2023-04-16T07:40:59.261Z,100828.91
2023-04-16T07:43:27.746Z,100835.41
2023-04-16T07:45:56.255Z,100837.50
2023-04-16T07:48:24.984Z,100836.72
2023-04-16T07:50:54.408Z,100835.97
2023-04-16T07:53:24.521Z,100844.69
2023-04-16T07:55:52.969Z,100852.91
2023-04-16T07:58:21.554Z,100842.72
2023-04-16T08:00:51.355Z,100853.88
2023-04-16T08:03:19.817Z,100863.41
2023-04-16T08:05:49.613Z,100857.88
2023-04-16T08:08:18.137Z,100870.69
2023-04-16T08:10:47.662Z,100874.31
2023-04-16T08:13:16.186Z,100874.84
2023-04-16T08:15:44.514Z,100874.31
2023-04-16T08:18:15.709Z,100874.63
2023-04-16T08:20:44.417Z,100872.59
2023-04-16T08:23:13.063Z,100886.72
2023-04-16T08:25:42.730Z,100885.78
2023-04-16T08:28:12.232Z,100878.13
2023-04-16T08:30:45.478Z,100883.22
2023-04-16T08:33:16.227Z,100888.16
2023-04-16T08:35:44.393Z,100889.50
2023-04-16T08:38:12.856Z,100886.97
2023-04-16T08:40:43.176Z,100890.91
2023-04-16T08:43:14.686Z,100896.88
2023-04-16T08:45:43.940Z,100901.88
2023-04-16T08:48:13.450Z,100897.91
2023-04-16T08:50:42.256Z,100902.63
2023-04-16T08:53:14.177Z,100904.75
2023-04-16T08:55:50.349Z,100909.00
2023-04-16T08:58:21.950Z,100911.88
2023-04-16T09:00:50.667Z,100912.84
2023-04-16T09:03:21.953Z,100909.97
2023-04-16T09:05:51.124Z,100919.53
2023-04-16T09:08:20.157Z,100918.78
2023-04-16T09:10:49.828Z,100913.47
2023-04-16T09:13:20.441Z,100922.72
2023-04-16T09:15:54.362Z,100921.03
2023-04-16T09:18:22.819Z,100922.72
2023-04-16T09:20:52.800Z,100924.41
2023-04-16T09:23:21.588Z,100927.81
2023-04-16T09:25:50.120Z,100926.63
2023-04-16T09:28:43.158Z,100932.47
2023-04-16T09:31:15.731Z,100931.31
2023-04-16T09:33:45.474Z,100938.47
2023-04-16T09:36:14.292Z,100937.47
2023-04-16T09:38:51.381Z,100939.50
2023-04-16T09:41:20.188Z,100938.66
2023-04-16T09:43:59.452Z,100929.81
2023-04-16T09:46:33.249Z,100935.53
2023-04-16T09:49:09.784Z,100934.28
2023-04-16T09:51:38.508Z,100943.53
2023-04-16T09:54:07.351Z,100942.66
2023-04-16T09:56:41.807Z,100947.91
2023-04-16T09:59:11.072Z,100942.88
2023-04-16T10:01:41.220Z,100949.44
2023-04-16T10:04:09.506Z,100952.00
2023-04-16T10:06:37.871Z,100952.28
2023-04-16T10:09:09.697Z,100944.38
2023-04-16T10:11:40.650Z,100945.41
2023-04-16T10:14:10.320Z,100950.00
2023-04-16T10:16:41.893Z,100953.31
2023-04-16T10:19:11.078Z,100951.41
2023-04-16T10:21:39.856Z,100960.13
2023-04-16T10:24:09.962Z,100960.47
2023-04-16T10:26:39.629Z,100961.94
2023-04-16T10:29:08.452Z,100957.97
2023-04-16T10:31:37.925Z,100960.75
2023-04-16T10:34:10.058Z,100957.22
2023-04-16T10:36:40.429Z,100960.81
2023-04-16T10:39:13.080Z,100961.56
2023-04-16T10:41:43.825Z,100964.06
2023-04-16T10:44:12.650Z,100963.13
2023-04-16T10:46:42.781Z,100969.16
2023-04-16T10:49:17.958Z,100961.50
2023-04-16T10:51:56.801Z,100960.09
2023-04-16T10:54:27.214Z,100955.75
2023-04-16T10:56:58.604Z,100957.41
2023-04-16T10:59:31.980Z,100955.09
2023-04-16T11:02:02.795Z,100959.34
2023-04-16T11:04:35.630Z,100965.78
2023-04-16T11:07:06.858Z,100958.94
2023-04-16T11:09:56.196Z,100962.59
2023-04-16T11:12:27.845Z,100958.53
2023-04-16T11:15:01.046Z,100959.59
2023-04-16T11:17:32.021Z,100963.13
2023-04-16T11:20:02.330Z,100962.25
2023-04-16T11:22:31.478Z,100969.34
2023-04-16T11:24:59.657Z,100966.97
2023-04-16T11:27:27.839Z,100967.97
2023-04-16T11:30:01.162Z,100956.91
2023-04-16T11:32:32.667Z,100956.53
2023-04-16T11:35:04.315Z,100955.81
2023-04-16T11:37:34.310Z,100954.63
2023-04-16T11:40:05.027Z,100956.69
2023-04-16T11:42:34.248Z,100964.88
2023-04-16T11:45:04.799Z,100960.09
2023-04-16T11:47:34.639Z,100950.31
2023-04-16T11:50:23.515Z,100953.84
2023-04-16T11:52:52.817Z,100953.66
2023-04-16T11:55:25.300Z,100955.31
2023-04-16T11:57:53.810Z,100955.16
2023-04-16T12:00:24.288Z,100953.47
2023-04-16T12:02:55.537Z,100966.13
2023-04-16T12:05:32.531Z,100959.41
2023-04-16T12:08:03.336Z,100964.78
2023-04-16T12:10:35.143Z,100955.34
2023-04-16T12:13:15.116Z,100960.38
2023-04-16T12:15:48.180Z,100969.81
2023-04-16T12:18:18.401Z,100965.53
2023-04-16T12:20:49.628Z,100964.47
2023-04-16T12:23:26.235Z,100966.09
2023-04-16T12:25:54.735Z,100968.69
2023-04-16T12:28:31.777Z,100962.59
2023-04-16T12:31:00.559Z,100969.81
2023-04-16T12:33:30.916Z,100960.84
2023-04-16T12:36:01.553Z,100966.78
2023-04-16T12:38:30.729Z,100959.38
2023-04-16T12:40:58.938Z,100971.22
2023-04-16T12:43:27.608Z,100969.94
2023-04-16T12:45:56.614Z,100971.19
2023-04-16T12:48:26.289Z,100967.19
2023-04-16T12:50:55.817Z,100970.94
2023-04-16T12:53:25.619Z,100980.38
2023-04-16T12:55:53.591Z,100976.84
2023-04-16T12:58:21.768Z,100976.81
2023-04-16T13:00:50.244Z,100983.06
2023-04-16T13:03:19.232Z,100974.72
2023-04-16T13:05:48.033Z,100978.41
2023-04-16T13:08:16.450Z,100983.06
2023-04-16T13:10:46.057Z,100975.09
2023-04-16T13:13:14.587Z,100982.66
2023-04-16T13:15:43.044Z,100981.53
2023-04-16T13:18:11.398Z,100978.31
2023-04-16T13:20:40.174Z,100976.81
2023-04-16T13:23:08.513Z,100982.53
2023-04-16T13:25:36.976Z,100976.00
2023-04-16T13:28:06.745Z,100985.59
2023-04-16T13:30:35.002Z,100976.47
2023-04-16T13:33:03.678Z,100977.75
2023-04-16T13:35:32.274Z,100983.50
2023-04-16T13:38:00.317Z,100978.16
2023-04-16T13:40:28.691Z,100985.13
2023-04-16T13:42:57.285Z,100995.63
2023-04-16T13:45:27.807Z,100990.06
2023-04-16T13:47:56.437Z,100990.56
2023-04-16T13:50:25.004Z,100995.41
2023-04-16T13:52:54.098Z,100994.69
2023-04-16T13:55:23.798Z,100995.88
2023-04-16T13:57:53.292Z,100999.59
2023-04-16T14:00:21.973Z,100993.78
2023-04-16T14:02:52.332Z,100995.41
2023-04-16T14:05:20.775Z,101006.16
2023-04-16T14:07:49.517Z,100998.28
2023-04-16T14:10:17.886Z,100997.03
2023-04-16T14:12:46.964Z,101001.38
2023-04-16T14:15:18.812Z,100998.47
2023-04-16T14:17:47.176Z,100997.44
2023-04-16T14:20:19.747Z,100997.75
2023-04-16T14:22:48.167Z,100997.53
2023-04-16T14:25:17.982Z,101001.44
2023-04-16T14:27:46.731Z,101001.09
2023-04-16T14:30:15.680Z,100996.13
2023-04-16T14:32:44.072Z,101003.03
2023-04-16T14:35:12.336Z,101000.66
2023-04-16T14:37:42.166Z,101006.59
2023-04-16T14:40:11.065Z,100999.97
2023-04-16T14:42:41.321Z,100999.34
2023-04-16T14:45:12.466Z,100998.44
2023-04-16T14:47:46.205Z,101001.22
2023-04-16T14:50:15.787Z,100992.34
2023-04-16T14:52:45.795Z,101001.81
2023-04-16T14:55:15.296Z,100994.50
2023-04-16T14:57:46.376Z,100993.03
2023-04-16T15:00:19.031Z,101001.06
2023-04-16T15:02:49.169Z,101002.91
2023-04-16T15:05:18.916Z,100996.25
2023-04-16T15:07:48.392Z,101002.75
2023-04-16T15:10:17.991Z,101001.84
2023-04-16T15:12:46.160Z,100994.97
2023-04-16T15:15:14.747Z,101004.59
2023-04-16T15:17:44.876Z,100995.69
2023-04-16T15:20:14.617Z,101006.63
2023-04-16T15:22:43.221Z,101003.84
2023-04-16T15:25:13.523Z,101000.06
2023-04-16T15:27:41.982Z,100995.19
2023-04-16T15:30:12.606Z,100999.59
2023-04-16T15:32:41.108Z,101001.44
2023-04-16T15:35:11.212Z,100999.78
2023-04-16T15:37:41.678Z,101005.13
2023-04-16T15:40:16.073Z,101005.84
2023-04-16T15:42:44.477Z,101010.25
2023-04-16T15:45:12.773Z,101010.97
2023-04-16T15:47:42.017Z,101006.16
2023-04-16T15:50:10.791Z,101012.41
2023-04-16T15:52:40.336Z,101012.72
2023-04-16T15:55:11.002Z,101016.41
2023-04-16T15:57:41.111Z,101019.00
2023-04-16T16:00:15.164Z,101014.00
2023-04-16T16:02:44.613Z,101014.53
2023-04-16T16:05:14.521Z,101019.34
2023-04-16T16:07:42.866Z,101019.69
2023-04-16T16:10:13.124Z,101016.91
2023-04-16T16:12:43.422Z,101021.13
2023-04-16T16:15:11.902Z,101014.09
2023-04-16T16:17:40.739Z,101012.25
2023-04-16T16:20:11.078Z,101016.50
2023-04-16T16:22:40.654Z,101013.38
2023-04-16T16:25:10.015Z,101030.22
2023-04-16T16:27:38.551Z,101026.72
2023-04-16T16:30:10.503Z,101024.69
2023-04-16T16:32:42.490Z,101025.63
2023-04-16T16:35:12.244Z,101025.28
2023-04-16T16:37:41.353Z,101029.00
2023-04-16T16:40:10.658Z,101026.44
2023-04-16T16:42:39.481Z,101029.38
2023-04-16T16:45:18.535Z,101027.00
2023-04-16T16:47:47.110Z,101027.53
2023-04-16T16:50:16.868Z,101030.88
2023-04-16T16:52:45.748Z,101032.97
2023-04-16T16:55:17.141Z,101032.72
2023-04-16T16:57:47.721Z,101033.81
2023-04-16T17:00:21.404Z,101031.56
2023-04-16T17:02:52.064Z,101036.72
2023-04-16T17:05:20.524Z,101035.03
2023-04-16T17:07:49.058Z,101037.41
2023-04-16T17:10:21.505Z,101045.13
2023-04-16T17:12:51.451Z,101048.66
2023-04-16T17:15:21.905Z,101043.63
2023-04-16T17:17:51.318Z,101048.25
2023-04-16T17:20:19.968Z,101043.03
2023-04-16T17:22:48.444Z,101045.59
2023-04-16T17:25:18.775Z,101046.69
2023-04-16T17:27:47.480Z,101038.16
2023-04-16T17:30:16.350Z,101047.88
2023-04-16T17:32:46.187Z,101048.97
2023-04-16T17:35:14.444Z,101041.91
2023-04-16T17:37:44.492Z,101047.97
2023-04-16T17:40:15.435Z,101051.09
2023-04-16T17:42:43.734Z,101059.19
2023-04-16T17:45:13.872Z,101059.00
2023-04-16T17:47:52.109Z,101066.88
2023-04-16T17:50:24.510Z,101066.28
2023-04-16T17:52:53.920Z,101065.56
2023-04-16T17:55:22.606Z,101069.81
2023-04-16T17:57:50.790Z,101067.91
2023-04-16T18:00:23.894Z,101076.34
2023-04-16T18:02:54.224Z,101082.94
2023-04-16T18:05:24.152Z,101083.28
2023-04-16T18:07:55.331Z,101085.84
2023-04-16T18:10:23.959Z,101086.94
2023-04-16T18:12:52.378Z,101082.13
2023-04-16T18:15:21.507Z,101086.72
2023-04-16T18:17:53.061Z,101087.25
2023-04-16T18:20:22.113Z,101083.53
2023-04-16T18:22:50.332Z,101087.38
2023-04-16T18:25:21.022Z,101087.16
2023-04-16T18:27:58.788Z,101087.72
2023-04-16T18:30:29.576Z,101090.47
2023-04-16T18:33:30.506Z,101099.31
2023-04-16T18:35:49.805Z,101101.00
2023-04-16T18:38:20.513Z,101096.84
2023-04-16T18:40:50.004Z,101096.75
2023-04-16T18:43:18.287Z,101097.06
2023-04-16T18:45:47.003Z,101107.97
2023-04-16T18:48:17.766Z,101110.72
2023-04-16T18:51:00.740Z,101107.09
2023-04-16T18:53:29.867Z,101101.56
2023-04-16T18:56:01.910Z,101112.31
2023-04-16T18:58:39.753Z,101100.16
2023-04-16T19:01:11.481Z,101108.34
2023-04-16T19:03:42.448Z,101102.81
2023-04-16T19:06:11.776Z,101109.41
2023-04-16T19:08:41.182Z,101106.13
2023-04-16T19:11:10.060Z,101106.56
2023-04-16T19:13:41.091Z,101111.59
2023-04-16T19:16:11.736Z,101112.16
2023-04-16T19:18:40.265Z,101109.59
2023-04-16T19:21:13.313Z,101119.19
2023-04-16T19:23:41.544Z,101117.56
2023-04-16T19:26:10.692Z,101118.00
2023-04-16T19:28:40.707Z,101118.88
2023-04-16T19:31:09.967Z,101114.06
2023-04-16T19:33:50.276Z,101119.41
2023-04-16T19:36:19.862Z,101117.50
2023-04-16T19:38:49.486Z,101120.88
2023-04-16T19:41:17.770Z,101124.06
2023-04-16T19:43:46.344Z,101125.06
2023-04-16T19:46:16.459Z,101122.00
2023-04-16T19:48:44.898Z,101125.63
2023-04-16T19:51:13.282Z,101123.47
2023-04-16T19:53:45.162Z,101133.16
2023-04-16T19:56:13.912Z,101132.66
2023-04-16T19:58:42.156Z,101135.75
2023-04-16T20:01:11.253Z,101139.06
2023-04-16T20:03:42.859Z,101134.97
2023-04-16T20:06:11.339Z,101148.09
2023-04-16T20:08:42.541Z,101145.97
2023-04-16T20:11:12.261Z,101140.75
2023-04-16T20:13:40.658Z,101147.78
2023-04-16T20:16:10.524Z,101145.25
2023-04-16T20:18:41.600Z,101139.53
2023-04-16T20:21:11.263Z,101142.66
2023-04-16T20:23:39.836Z,101149.44
2023-04-16T20:26:09.508Z,101140.81
2023-04-16T20:28:40.289Z,101142.44
2023-04-16T20:31:08.775Z,101141.78
2023-04-16T20:33:37.922Z,101137.75
2023-04-16T20:36:06.621Z,101141.69
2023-04-16T20:38:37.565Z,101142.78
2023-04-16T20:41:20.170Z,101134.72
2023-04-16T20:43:53.209Z,101140.66
2023-04-16T20:46:24.520Z,101134.97
2023-04-16T20:48:53.885Z,101139.22
2023-04-16T20:51:22.016Z,101136.06
2023-04-16T20:53:52.143Z,101131.38
2023-04-16T20:56:22.161Z,101133.94
2023-04-16T20:58:51.073Z,101123.94
2023-04-16T21:01:20.508Z,101136.63
2023-04-16T21:03:49.018Z,101132.25
2023-04-16T21:06:25.175Z,101127.56
2023-04-16T21:08:53.505Z,101136.53
2023-04-16T21:11:23.735Z,101121.28
2023-04-16T21:13:52.181Z,101124.19
2023-04-16T21:16:20.757Z,101126.09
2023-04-16T21:18:49.697Z,101117.78
2023-04-16T21:21:19.022Z,101125.88
2023-04-16T21:23:47.704Z,101123.31
2023-04-16T21:26:16.079Z,101125.44
2023-04-16T21:28:45.774Z,101116.50
2023-04-16T21:31:17.055Z,101122.78
2023-04-16T21:33:46.778Z,101123.97
2023-04-16T21:36:16.248Z,101121.84
2023-04-16T21:38:45.757Z,101111.69
2023-04-16T21:41:13.887Z,101119.47
2023-04-16T21:43:46.074Z,101110.72
2023-04-16T21:46:17.112Z,101117.44
2023-04-16T21:48:47.262Z,101117.56
2023-04-16T21:51:20.461Z,101118.19
2023-04-16T21:53:49.080Z,101115.66
2023-04-16T21:56:17.371Z,101122.88
2023-04-16T21:58:50.137Z,101127.38
2023-04-16T22:01:28.509Z,101124.38
2023-04-16T22:03:58.696Z,101129.91
2023-04-16T22:06:27.110Z,101130.78
2023-04-16T22:08:58.829Z,101131.22
2023-04-16T22:11:30.217Z,101133.44
2023-04-16T22:14:01.299Z,101134.63
2023-04-16T22:16:29.548Z,101136.72
2023-04-16T22:18:57.664Z,101135.44
2023-04-16T22:21:26.545Z,101141.19
2023-04-16T22:23:59.294Z,101142.03
2023-04-16T22:26:27.961Z,101139.09
2023-04-16T22:29:03.021Z,101137.56
2023-04-16T22:31:31.521Z,101139.94
2023-04-16T22:34:01.475Z,101137.81
2023-04-16T22:36:36.110Z,101135.03
2023-04-16T22:39:08.566Z,101147.69
2023-04-16T22:41:37.400Z,101145.13
2023-04-16T22:44:07.205Z,101141.41
2023-04-16T22:46:35.458Z,101142.38
2023-04-16T22:49:03.708Z,101136.69
2023-04-16T22:51:32.347Z,101148.41
2023-04-16T22:54:00.865Z,101146.16
2023-04-16T22:56:32.848Z,101147.97
2023-04-16T22:59:01.481Z,101144.47
2023-04-16T23:01:31.580Z,101141.03
2023-04-16T23:04:00.254Z,101141.34
2023-04-16T23:06:29.023Z,101139.88
2023-04-16T23:08:59.345Z,101136.47
2023-04-16T23:11:27.646Z,101140.50
2023-04-16T23:13:56.245Z,101144.59
2023-04-16T23:16:25.456Z,101142.56
2023-04-16T23:18:55.692Z,101149.03
2023-04-16T23:21:24.241Z,101141.56
2023-04-16T23:23:52.724Z,101139.84
2023-04-16T23:26:22.609Z,101144.63
2023-04-16T23:28:51.326Z,101149.19
2023-04-16T23:31:19.709Z,101144.53
2023-04-16T23:33:48.387Z,101138.88
2023-04-16T23:36:18.284Z,101137.91
2023-04-16T23:38:46.794Z,101144.41
2023-04-16T23:41:16.137Z,101138.00
2023-04-16T23:43:44.413Z,101142.31
2023-04-16T23:46:12.603Z,101138.31
2023-04-16T23:48:41.530Z,101143.16
2023-04-16T23:51:09.912Z,101141.69
2023-04-16T23:53:40.800Z,101141.75
2023-04-16T23:56:10.985Z,101134.22
2023-04-16T23:58:39.742Z,101138.47
